sensor_id;sensor_type;location;lat;lon;timestamp;pressure;altitude;pressure_sealevel;temperature;humidity
18436;BME280;9346;52.006;4.720;2023-04-29T00:00:34;101451.44;;;10.52;100.00
18436;BME280;9346;52.006;4.720;2023-04-29T00:03:01;101452.00;;;10.54;100.00
18436;BME280;9346;52.006;4.720;2023-04-29T00:05:28;101461.94;;;10.55;100.00
18436;BME280;9346;52.006;4.720;2023-04-29T00:07:56;101457.25;;;10.56;100.00
18436;BME280;9346;52.006;4.720;2023-04-29T00:10:25;101467.72;;;10.54;100.00
18436;BME280;9346;52.006;4.720;2023-04-29T00:12:52;101468.84;;;10.58;100.00
18436;BME280;9346;52.006;4.720;2023-04-29T00:15:19;101462.25;;;10.59;100.00
18436;BME280;9346;52.006;4.720;2023-04-29T00:17:47;101463.34;;;10.58;100.00
18436;BME280;9346;52.006;4.720;2023-04-29T00:20:15;101463.91;;;10.60;100.00
18436;BME280;9346;52.006;4.720;2023-04-29T00:22:45;101464.16;;;10.58;100.00
18436;BME280;9346;52.006;4.720;2023-04-29T00:25:13;101465.78;;;10.54;100.00
18436;BME280;9346;52.006;4.720;2023-04-29T00:27:42;101463.53;;;10.51;100.00
18436;BME280;9346;52.006;4.720;2023-04-29T00:30:10;101466.00;;;10.48;100.00
18436;BME280;9346;52.006;4.720;2023-04-29T00:32:37;101468.16;;;10.46;100.00
18436;BME280;9346;52.006;4.720;2023-04-29T00:35:04;101469.50;;;10.43;100.00
18436;BME280;9346;52.006;4.720;2023-04-29T00:37:31;101474.50;;;10.46;100.00
18436;BME280;9346;52.006;4.720;2023-04-29T00:39:59;101469.81;;;10.47;100.00
18436;BME280;9346;52.006;4.720;2023-04-29T00:42:26;101473.41;;;10.47;100.00
18436;BME280;9346;52.006;4.720;2023-04-29T00:44:56;101470.06;;;10.45;100.00
18436;BME280;9346;52.006;4.720;2023-04-29T00:47:23;101474.19;;;10.43;100.00
18436;BME280;9346;52.006;4.720;2023-04-29T00:49:52;101478.53;;;10.39;100.00
18436;BME280;9346;52.006;4.720;2023-04-29T00:52:19;101469.69;;;10.37;100.00
18436;BME280;9346;52.006;4.720;2023-04-29T00:54:47;101482.06;;;10.34;100.00
18436;BME280;9346;52.006;4.720;2023-04-29T00:57:14;101483.47;;;10.37;100.00
18436;BME280;9346;52.006;4.720;2023-04-29T00:59:40;101481.81;;;10.36;100.00
18436;BME280;9346;52.006;4.720;2023-04-29T01:02:09;101479.56;;;10.33;100.00
18436;BME280;9346;52.006;4.720;2023-04-29T01:04:36;101475.72;;;10.34;100.00
18436;BME280;9346;52.006;4.720;2023-04-29T01:07:09;101479.91;;;10.36;100.00
18436;BME280;9346;52.006;4.720;2023-04-29T01:09:54;101492.25;;;10.34;100.00
18436;BME280;9346;52.006;4.720;2023-04-29T01:12:32;101489.75;;;10.32;100.00
18436;BME280;9346;52.006;4.720;2023-04-29T01:15:03;101493.59;;;10.31;100.00
18436;BME280;9346;52.006;4.720;2023-04-29T01:17:36;101498.84;;;10.33;100.00
18436;BME280;9346;52.006;4.720;2023-04-29T01:20:07;101500.75;;;10.32;100.00
18436;BME280;9346;52.006;4.720;2023-04-29T01:22:34;101495.00;;;10.34;100.00
18436;BME280;9346;52.006;4.720;2023-04-29T01:25:04;101494.75;;;10.35;100.00
18436;BME280;9346;52.006;4.720;2023-04-29T01:27:45;101503.25;;;10.34;100.00
18436;BME280;9346;52.006;4.720;2023-04-29T01:30:31;101496.69;;;10.35;100.00
18436;BME280;9346;52.006;4.720;2023-04-29T01:33:08;101504.94;;;10.35;100.00
18436;BME280;9346;52.006;4.720;2023-04-29T01:35:44;101506.59;;;10.36;100.00
18436;BME280;9346;52.006;4.720;2023-04-29T01:38:24;101505.75;;;10.35;100.00
18436;BME280;9346;52.006;4.720;2023-04-29T01:41:05;101507.44;;;10.36;100.00
18436;BME280;9346;52.006;4.720;2023-04-29T01:43:36;101522.28;;;10.35;100.00
18436;BME280;9346;52.006;4.720;2023-04-29T01:46:05;101524.22;;;10.35;100.00
18436;BME280;9346;52.006;4.720;2023-04-29T01:48:32;101523.63;;;10.33;100.00
18436;BME280;9346;52.006;4.720;2023-04-29T01:50:59;101523.03;;;10.31;100.00
18436;BME280;9346;52.006;4.720;2023-04-29T01:53:27;101520.63;;;10.34;100.00
18436;BME280;9346;52.006;4.720;2023-04-29T01:55:53;101517.03;;;10.34;100.00
18436;BME280;9346;52.006;4.720;2023-04-29T01:58:22;101522.53;;;10.34;100.00
18436;BME280;9346;52.006;4.720;2023-04-29T02:00:49;101521.47;;;10.35;100.00
18436;BME280;9346;52.006;4.720;2023-04-29T02:03:16;101523.13;;;10.36;100.00
18436;BME280;9346;52.006;4.720;2023-04-29T02:05:43;101527.53;;;10.37;100.00
18436;BME280;9346;52.006;4.720;2023-04-29T02:08:10;101528.97;;;10.39;100.00
18436;BME280;9346;52.006;4.720;2023-04-29T02:10:37;101533.63;;;10.39;100.00
18436;BME280;9346;52.006;4.720;2023-04-29T02:13:03;101534.47;;;10.39;100.00
18436;BME280;9346;52.006;4.720;2023-04-29T02:15:32;101535.88;;;10.42;100.00
18436;BME280;9346;52.006;4.720;2023-04-29T02:17:59;101530.38;;;10.42;100.00
18436;BME280;9346;52.006;4.720;2023-04-29T02:20:26;101547.97;;;10.41;100.00
18436;BME280;9346;52.006;4.720;2023-04-29T02:22:53;101543.28;;;10.41;100.00
18436;BME280;9346;52.006;4.720;2023-04-29T02:25:20;101552.41;;;10.42;100.00
18436;BME280;9346;52.006;4.720;2023-04-29T02:27:47;101553.50;;;10.41;100.00
18436;BME280;9346;52.006;4.720;2023-04-29T02:30:14;101550.19;;;10.44;100.00
18436;BME280;9346;52.006;4.720;2023-04-29T02:32:43;101554.91;;;10.43;100.00
18436;BME280;9346;52.006;4.720;2023-04-29T02:35:10;101552.41;;;10.42;100.00
18436;BME280;9346;52.006;4.720;2023-04-29T02:37:37;101551.81;;;10.40;100.00
18436;BME280;9346;52.006;4.720;2023-04-29T02:40:05;101566.16;;;10.42;100.00
18436;BME280;9346;52.006;4.720;2023-04-29T02:42:32;101560.41;;;10.43;100.00
18436;BME280;9346;52.006;4.720;2023-04-29T02:44:59;101568.66;;;10.43;100.00
18436;BME280;9346;52.006;4.720;2023-04-29T02:47:26;101570.31;;;10.44;100.00
18436;BME280;9346;52.006;4.720;2023-04-29T02:49:55;101572.81;;;10.46;100.00
18436;BME280;9346;52.006;4.720;2023-04-29T02:52:22;101575.56;;;10.46;100.00
18436;BME280;9346;52.006;4.720;2023-04-29T02:54:49;101570.31;;;10.44;100.00
18436;BME280;9346;52.006;4.720;2023-04-29T02:57:16;101576.34;;;10.41;100.00
18436;BME280;9346;52.006;4.720;2023-04-29T02:59:43;101578.28;;;10.41;100.00
18436;BME280;9346;52.006;4.720;2023-04-29T03:02:10;101588.44;;;10.40;100.00
18436;BME280;9346;52.006;4.720;2023-04-29T03:04:38;101587.34;;;10.41;100.00
18436;BME280;9346;52.006;4.720;2023-04-29T03:07:07;101585.19;;;10.43;100.00
18436;BME280;9346;52.006;4.720;2023-04-29T03:09:33;101587.69;;;10.45;100.00
18436;BME280;9346;52.006;4.720;2023-04-29T03:12:00;101591.50;;;10.44;100.00
18436;BME280;9346;52.006;4.720;2023-04-29T03:14:28;101594.00;;;10.45;100.00
18436;BME280;9346;52.006;4.720;2023-04-29T03:16:55;101591.00;;;10.47;100.00
18436;BME280;9346;52.006;4.720;2023-04-29T03:19:22;101593.25;;;10.50;100.00
18436;BME280;9346;52.006;4.720;2023-04-29T03:21:49;101591.59;;;10.49;100.00
18436;BME280;9346;52.006;4.720;2023-04-29T03:24:18;101587.75;;;10.50;100.00
18436;BME280;9346;52.006;4.720;2023-04-29T03:26:44;101589.44;;;10.51;100.00
18436;BME280;9346;52.006;4.720;2023-04-29T03:29:12;101587.75;;;10.50;100.00
18436;BME280;9346;52.006;4.720;2023-04-29T03:31:39;101585.50;;;10.47;100.00
18436;BME280;9346;52.006;4.720;2023-04-29T03:34:06;101591.25;;;10.45;100.00
18436;BME280;9346;52.006;4.720;2023-04-29T03:36:32;101597.59;;;10.46;100.00
18436;BME280;9346;52.006;4.720;2023-04-29T03:39:00;101598.75;;;10.50;100.00
18436;BME280;9346;52.006;4.720;2023-04-29T03:41:28;101599.00;;;10.48;100.00
18436;BME280;9346;52.006;4.720;2023-04-29T03:43:55;101596.25;;;10.48;100.00
18436;BME280;9346;52.006;4.720;2023-04-29T03:46:25;101602.09;;;10.52;100.00
18436;BME280;9346;52.006;4.720;2023-04-29T03:48:52;101597.44;;;10.52;100.00
18436;BME280;9346;52.006;4.720;2023-04-29T03:51:20;101601.50;;;10.50;100.00
18436;BME280;9346;52.006;4.720;2023-04-29T03:53:47;101598.50;;;10.51;100.00
18436;BME280;9346;52.006;4.720;2023-04-29T03:56:14;101601.25;;;10.51;100.00
18436;BME280;9346;52.006;4.720;2023-04-29T03:58:43;101608.72;;;10.51;100.00
18436;BME280;9346;52.006;4.720;2023-04-29T04:01:10;101607.88;;;10.50;100.00
18436;BME280;9346;52.006;4.720;2023-04-29T04:03:37;101602.34;;;10.50;100.00
18436;BME280;9346;52.006;4.720;2023-04-29T04:06:04;101604.25;;;10.50;100.00
18436;BME280;9346;52.006;4.720;2023-04-29T04:08:31;101614.22;;;10.51;100.00
18436;BME280;9346;52.006;4.720;2023-04-29T04:10:58;101606.50;;;10.53;100.00
18436;BME280;9346;52.006;4.720;2023-04-29T04:13:27;101618.13;;;10.55;100.00
18436;BME280;9346;52.006;4.720;2023-04-29T04:15:56;101614.00;;;10.57;100.00
18436;BME280;9346;52.006;4.720;2023-04-29T04:18:22;101632.19;;;10.58;100.00
18436;BME280;9346;52.006;4.720;2023-04-29T04:20:50;101622.03;;;10.59;100.00
18436;BME280;9346;52.006;4.720;2023-04-29T04:23:17;101626.44;;;10.60;100.00
18436;BME280;9346;52.006;4.720;2023-04-29T04:25:44;101624.78;;;10.59;100.00
18436;BME280;9346;52.006;4.720;2023-04-29T04:28:12;101629.44;;;10.58;100.00
18436;BME280;9346;52.006;4.720;2023-04-29T04:30:39;101627.78;;;10.57;100.00
18436;BME280;9346;52.006;4.720;2023-04-29T04:33:08;101635.22;;;10.57;100.00
18436;BME280;9346;52.006;4.720;2023-04-29T04:35:36;101643.81;;;10.60;100.00
18436;BME280;9346;52.006;4.720;2023-04-29T04:38:03;101649.31;;;10.60;100.00
18436;BME280;9346;52.006;4.720;2023-04-29T04:40:30;101654.56;;;10.62;100.00
18436;BME280;9346;52.006;4.720;2023-04-29T04:42:57;101658.69;;;10.59;100.00
18436;BME280;9346;52.006;4.720;2023-04-29T04:45:24;101651.22;;;10.60;100.00
18436;BME280;9346;52.006;4.720;2023-04-29T04:47:51;101656.19;;;10.58;100.00
18436;BME280;9346;52.006;4.720;2023-04-29T04:50:19;101660.59;;;10.59;100.00
18436;BME280;9346;52.006;4.720;2023-04-29T04:52:46;101666.09;;;10.59;100.00
18436;BME280;9346;52.006;4.720;2023-04-29T04:55:13;101676.63;;;10.62;100.00
18436;BME280;9346;52.006;4.720;2023-04-29T04:57:40;101674.44;;;10.64;100.00
18436;BME280;9346;52.006;4.720;2023-04-29T05:00:08;101673.84;;;10.62;100.00
18436;BME280;9346;52.006;4.720;2023-04-29T05:02:36;101686.78;;;10.61;100.00
18436;BME280;9346;52.006;4.720;2023-04-29T05:05:03;101686.78;;;10.61;100.00
18436;BME280;9346;52.006;4.720;2023-04-29T05:07:32;101692.88;;;10.63;100.00
18436;BME280;9346;52.006;4.720;2023-04-29T05:10:00;101692.03;;;10.63;100.00
18436;BME280;9346;52.006;4.720;2023-04-29T05:12:27;101698.41;;;10.63;100.00
18436;BME280;9346;52.006;4.720;2023-04-29T05:14:55;101701.66;;;10.60;100.00
18436;BME280;9346;52.006;4.720;2023-04-29T05:17:22;101703.06;;;10.63;100.00
18436;BME280;9346;52.006;4.720;2023-04-29T05:19:49;101703.66;;;10.65;100.00
18436;BME280;9346;52.006;4.720;2023-04-29T05:22:16;101715.28;;;10.67;100.00
18436;BME280;9346;52.006;4.720;2023-04-29T05:24:45;101718.28;;;10.65;100.00
18436;BME280;9346;52.006;4.720;2023-04-29T05:27:12;101727.34;;;10.66;100.00
18436;BME280;9346;52.006;4.720;2023-04-29T05:29:39;101726.53;;;10.65;100.00
18436;BME280;9346;52.006;4.720;2023-04-29T05:32:06;101732.06;;;10.65;100.00
18436;BME280;9346;52.006;4.720;2023-04-29T05:34:33;101724.03;;;10.64;100.00
18436;BME280;9346;52.006;4.720;2023-04-29T05:37:00;101731.97;;;10.60;100.00
18436;BME280;9346;52.006;4.720;2023-04-29T05:39:27;101729.81;;;10.62;100.00
18436;BME280;9346;52.006;4.720;2023-04-29T05:41:56;101732.31;;;10.64;100.00
18436;BME280;9346;52.006;4.720;2023-04-29T05:44:23;101731.22;;;10.65;100.00
18436;BME280;9346;52.006;4.720;2023-04-29T05:46:50;101729.06;;;10.67;100.00
18436;BME280;9346;52.006;4.720;2023-04-29T05:49:17;101740.88;;;10.67;100.00
18436;BME280;9346;52.006;4.720;2023-04-29T05:51:44;101737.06;;;10.68;100.00
18436;BME280;9346;52.006;4.720;2023-04-29T05:54:10;101745.06;;;10.70;100.00
18436;BME280;9346;52.006;4.720;2023-04-29T05:56:37;101751.16;;;10.72;100.00
18436;BME280;9346;52.006;4.720;2023-04-29T05:59:06;101755.81;;;10.71;100.00
18436;BME280;9346;52.006;4.720;2023-04-29T06:01:32;101762.78;;;10.74;100.00
18436;BME280;9346;52.006;4.720;2023-04-29T06:03:59;101762.50;;;10.75;100.00
18436;BME280;9346;52.006;4.720;2023-04-29T06:06:26;101769.44;;;10.78;100.00
18436;BME280;9346;52.006;4.720;2023-04-29T06:08:52;101781.59;;;10.82;100.00
18436;BME280;9346;52.006;4.720;2023-04-29T06:11:20;101771.44;;;10.82;100.00
18436;BME280;9346;52.006;4.720;2023-04-29T06:13:46;101772.28;;;10.83;100.00
18436;BME280;9346;52.006;4.720;2023-04-29T06:16:16;101780.53;;;10.83;100.00
18436;BME280;9346;52.006;4.720;2023-04-29T06:18:43;101774.50;;;10.86;100.00
18436;BME280;9346;52.006;4.720;2023-04-29T06:21:11;101781.44;;;10.88;100.00
18436;BME280;9346;52.006;4.720;2023-04-29T06:23:37;101788.97;;;10.93;100.00
18436;BME280;9346;52.006;4.720;2023-04-29T06:26:05;101789.53;;;10.95;100.00
18436;BME280;9346;52.006;4.720;2023-04-29T06:28:31;101791.50;;;10.99;100.00
18436;BME280;9346;52.006;4.720;2023-04-29T06:31:01;101799.53;;;11.01;100.00
18436;BME280;9346;52.006;4.720;2023-04-29T06:33:29;101792.63;;;10.98;100.00
18436;BME280;9346;52.006;4.720;2023-04-29T06:35:58;101798.38;;;10.97;100.00
18436;BME280;9346;52.006;4.720;2023-04-29T06:38:25;101803.63;;;10.98;100.00
18436;BME280;9346;52.006;4.720;2023-04-29T06:40:51;101800.69;;;11.05;100.00
18436;BME280;9346;52.006;4.720;2023-04-29T06:43:18;101805.69;;;11.08;100.00
18436;BME280;9346;52.006;4.720;2023-04-29T06:45:45;101804.94;;;11.12;100.00
18436;BME280;9346;52.006;4.720;2023-04-29T06:48:12;101811.34;;;11.18;100.00
18436;BME280;9346;52.006;4.720;2023-04-29T06:50:49;101816.34;;;11.21;100.00
18436;BME280;9346;52.006;4.720;2023-04-29T06:53:16;101818.59;;;11.24;100.00
18436;BME280;9346;52.006;4.720;2023-04-29T06:55:43;101819.50;;;11.29;100.00
18436;BME280;9346;52.006;4.720;2023-04-29T06:58:10;101822.69;;;11.38;100.00
18436;BME280;9346;52.006;4.720;2023-04-29T07:00:37;101829.72;;;11.51;100.00
18436;BME280;9346;52.006;4.720;2023-04-29T07:03:04;101823.09;;;11.52;100.00
18436;BME280;9346;52.006;4.720;2023-04-29T07:05:31;101827.22;;;11.49;100.00
18436;BME280;9346;52.006;4.720;2023-04-29T07:08:00;101835.25;;;11.51;100.00
18436;BME280;9346;52.006;4.720;2023-04-29T07:10:28;101841.34;;;11.53;100.00
18436;BME280;9346;52.006;4.720;2023-04-29T07:12:55;101845.56;;;11.60;100.00
18436;BME280;9346;52.006;4.720;2023-04-29T07:15:24;101846.78;;;11.64;100.00
18436;BME280;9346;52.006;4.720;2023-04-29T07:17:51;101842.41;;;11.68;100.00
18436;BME280;9346;52.006;4.720;2023-04-29T07:20:18;101850.44;;;11.70;100.00
18436;BME280;9346;52.006;4.720;2023-04-29T07:22:45;101852.16;;;11.76;100.00
18436;BME280;9346;52.006;4.720;2023-04-29T07:25:14;101855.81;;;11.81;100.00
18436;BME280;9346;52.006;4.720;2023-04-29T07:27:43;101850.41;;;11.91;100.00
18436;BME280;9346;52.006;4.720;2023-04-29T07:30:10;101861.44;;;11.91;100.00
18436;BME280;9346;52.006;4.720;2023-04-29T07:32:38;101864.84;;;11.98;100.00
18436;BME280;9346;52.006;4.720;2023-04-29T07:35:06;101863.53;;;12.06;100.00
18436;BME280;9346;52.006;4.720;2023-04-29T07:37:34;101872.47;;;12.13;100.00
18436;BME280;9346;52.006;4.720;2023-04-29T07:40:01;101869.75;;;12.18;100.00
18436;BME280;9346;52.006;4.720;2023-04-29T07:42:31;101868.13;;;12.22;100.00
18436;BME280;9346;52.006;4.720;2023-04-29T07:44:58;101865.13;;;12.23;100.00
18436;BME280;9346;52.006;4.720;2023-04-29T07:47:25;101866.78;;;12.24;100.00
18436;BME280;9346;52.006;4.720;2023-04-29T07:49:52;101865.47;;;12.32;100.00
18436;BME280;9346;52.006;4.720;2023-04-29T07:52:20;101868.50;;;12.30;100.00
18436;BME280;9346;52.006;4.720;2023-04-29T07:54:47;101871.59;;;12.34;100.00
18436;BME280;9346;52.006;4.720;2023-04-29T07:57:16;101866.94;;;12.39;100.00
18436;BME280;9346;52.006;4.720;2023-04-29T07:59:45;101867.00;;;12.44;100.00
18436;BME280;9346;52.006;4.720;2023-04-29T08:02:12;101866.09;;;12.39;100.00
18436;BME280;9346;52.006;4.720;2023-04-29T08:04:41;101872.22;;;12.41;100.00
18436;BME280;9346;52.006;4.720;2023-04-29T08:07:10;101870.31;;;12.46;100.00
18436;BME280;9346;52.006;4.720;2023-04-29T08:09:40;101873.19;;;12.56;100.00
18436;BME280;9346;52.006;4.720;2023-04-29T08:12:08;101862.44;;;12.60;100.00
18436;BME280;9346;52.006;4.720;2023-04-29T08:14:37;101867.44;;;12.63;100.00
18436;BME280;9346;52.006;4.720;2023-04-29T08:17:07;101868.91;;;12.70;100.00
18436;BME280;9346;52.006;4.720;2023-04-29T08:19:34;101873.25;;;12.66;100.00
18436;BME280;9346;52.006;4.720;2023-04-29T08:22:01;101868.81;;;12.60;100.00
18436;BME280;9346;52.006;4.720;2023-04-29T08:24:29;101878.53;;;12.68;100.00
18436;BME280;9346;52.006;4.720;2023-04-29T08:26:57;101875.13;;;12.87;100.00
18436;BME280;9346;52.006;4.720;2023-04-29T08:29:29;101879.53;;;12.88;100.00
18436;BME280;9346;52.006;4.720;2023-04-29T08:31:57;101879.06;;;12.96;100.00
18436;BME280;9346;52.006;4.720;2023-04-29T08:34:26;101882.34;;;12.93;100.00
18436;BME280;9346;52.006;4.720;2023-04-29T08:36:56;101883.25;;;12.99;100.00
18436;BME280;9346;52.006;4.720;2023-04-29T08:39:24;101886.34;;;13.07;100.00
18436;BME280;9346;52.006;4.720;2023-04-29T08:41:51;101890.88;;;13.18;100.00
18436;BME280;9346;52.006;4.720;2023-04-29T08:44:21;101898.13;;;13.29;100.00
18436;BME280;9346;52.006;4.720;2023-04-29T08:46:48;101896.53;;;13.38;100.00
18436;BME280;9346;52.006;4.720;2023-04-29T08:49:15;101904.59;;;13.45;100.00
18436;BME280;9346;52.006;4.720;2023-04-29T08:51:47;101905.44;;;13.45;100.00
18436;BME280;9346;52.006;4.720;2023-04-29T08:54:14;101909.56;;;13.43;100.00
18436;BME280;9346;52.006;4.720;2023-04-29T08:56:44;101918.16;;;13.46;100.00
18436;BME280;9346;52.006;4.720;2023-04-29T08:59:13;101904.91;;;13.48;100.00
18436;BME280;9346;52.006;4.720;2023-04-29T09:01:42;101915.69;;;13.50;100.00
18436;BME280;9346;52.006;4.720;2023-04-29T09:04:23;101914.59;;;13.51;100.00
18436;BME280;9346;52.006;4.720;2023-04-29T09:06:58;101912.63;;;13.46;100.00
18436;BME280;9346;52.006;4.720;2023-04-29T09:09:25;101916.50;;;13.45;100.00
18436;BME280;9346;52.006;4.720;2023-04-29T09:11:53;101919.00;;;13.47;100.00
18436;BME280;9346;52.006;4.720;2023-04-29T09:14:22;101912.69;;;13.57;100.00
18436;BME280;9346;52.006;4.720;2023-04-29T09:16:52;101908.88;;;13.68;100.00
18436;BME280;9346;52.006;4.720;2023-04-29T09:19:29;101908.09;;;13.77;100.00
18436;BME280;9346;52.006;4.720;2023-04-29T09:22:00;101912.81;;;13.82;100.00
18436;BME280;9346;52.006;4.720;2023-04-29T09:24:28;101911.72;;;13.83;100.00
18436;BME280;9346;52.006;4.720;2023-04-29T09:26:57;101915.59;;;13.82;100.00
18436;BME280;9346;52.006;4.720;2023-04-29T09:29:25;101910.31;;;13.80;100.00
18436;BME280;9346;52.006;4.720;2023-04-29T09:31:52;101909.25;;;13.86;100.00
18436;BME280;9346;52.006;4.720;2023-04-29T09:34:30;101912.31;;;13.95;100.00
18436;BME280;9346;52.006;4.720;2023-04-29T09:36:59;101923.44;;;14.05;100.00
18436;BME280;9346;52.006;4.720;2023-04-29T09:39:26;101920.63;;;13.95;100.00
18436;BME280;9346;52.006;4.720;2023-04-29T09:41:58;101930.59;;;13.96;100.00
18436;BME280;9346;52.006;4.720;2023-04-29T09:44:28;101927.56;;;13.92;100.00
18436;BME280;9346;52.006;4.720;2023-04-29T09:46:56;101931.97;;;13.93;100.00
18436;BME280;9346;52.006;4.720;2023-04-29T09:49:24;101929.78;;;14.00;100.00
18436;BME280;9346;52.006;4.720;2023-04-29T09:51:56;101932.81;;;13.94;100.00
18436;BME280;9346;52.006;4.720;2023-04-29T09:54:27;101927.81;;;13.96;100.00
18436;BME280;9346;52.006;4.720;2023-04-29T09:56:56;101932.56;;;14.00;100.00
18436;BME280;9346;52.006;4.720;2023-04-29T09:59:24;101936.72;;;13.98;100.00
18436;BME280;9346;52.006;4.720;2023-04-29T10:01:53;101933.41;;;14.01;100.00
18436;BME280;9346;52.006;4.720;2023-04-29T10:04:23;101933.97;;;14.03;100.00
18436;BME280;9346;52.006;4.720;2023-04-29T10:06:53;101937.06;;;14.16;100.00
18436;BME280;9346;52.006;4.720;2023-04-29T10:09:22;101939.63;;;14.28;100.00
18436;BME280;9346;52.006;4.720;2023-04-29T10:11:52;101941.28;;;14.24;100.00
18436;BME280;9346;52.006;4.720;2023-04-29T10:14:21;101939.66;;;14.33;100.00
18436;BME280;9346;52.006;4.720;2023-04-29T10:16:52;101947.41;;;14.36;100.00
18436;BME280;9346;52.006;4.720;2023-04-29T10:19:25;101946.56;;;14.35;100.00
18436;BME280;9346;52.006;4.720;2023-04-29T10:21:57;101952.41;;;14.44;100.00
18436;BME280;9346;52.006;4.720;2023-04-29T10:24:27;101952.41;;;14.44;100.00
18436;BME280;9346;52.006;4.720;2023-04-29T10:26:56;101951.31;;;14.40;100.00
18436;BME280;9346;52.006;4.720;2023-04-29T10:29:26;101955.22;;;14.49;100.00
18436;BME280;9346;52.006;4.720;2023-04-29T10:31:59;101951.34;;;14.60;100.00
18436;BME280;9346;52.006;4.720;2023-04-29T10:34:27;101957.47;;;14.67;100.00
18436;BME280;9346;52.006;4.720;2023-04-29T10:36:57;101955.28;;;14.74;100.00
18436;BME280;9346;52.006;4.720;2023-04-29T10:39:38;101956.09;;;14.69;100.00
18436;BME280;9346;52.006;4.720;2023-04-29T10:42:15;101945.25;;;14.63;100.00
18436;BME280;9346;52.006;4.720;2023-04-29T10:45:19;101945.25;;;14.63;100.00
18436;BME280;9346;52.006;4.720;2023-04-29T10:48:09;101941.41;;;14.74;100.00
18436;BME280;9346;52.006;4.720;2023-04-29T10:51:00;101942.53;;;14.78;100.00
18436;BME280;9346;52.006;4.720;2023-04-29T10:53:30;101942.78;;;14.81;100.00
18436;BME280;9346;52.006;4.720;2023-04-29T10:56:06;101944.19;;;14.79;100.00
18436;BME280;9346;52.006;4.720;2023-04-29T10:58:41;101945.56;;;14.86;100.00
18436;BME280;9346;52.006;4.720;2023-04-29T11:01:11;101939.47;;;14.84;100.00
18436;BME280;9346;52.006;4.720;2023-04-29T11:03:52;101947.25;;;14.92;100.00
18436;BME280;9346;52.006;4.720;2023-04-29T11:06:38;101947.81;;;15.04;100.00
18436;BME280;9346;52.006;4.720;2023-04-29T11:09:12;101944.75;;;15.11;100.00
18436;BME280;9346;52.006;4.720;2023-04-29T11:11:58;101949.47;;;15.15;100.00
18436;BME280;9346;52.006;4.720;2023-04-29T11:14:31;101947.81;;;15.14;100.00
18436;BME280;9346;52.006;4.720;2023-04-29T11:17:02;101954.19;;;15.15;100.00
18436;BME280;9346;52.006;4.720;2023-04-29T11:19:32;101956.13;;;15.09;100.00
18436;BME280;9346;52.006;4.720;2023-04-29T11:22:23;101951.41;;;15.10;100.00
18436;BME280;9346;52.006;4.720;2023-04-29T11:24:54;101952.25;;;15.20;100.00
18436;BME280;9346;52.006;4.720;2023-04-29T11:27:29;101949.75;;;15.19;100.00
18436;BME280;9346;52.006;4.720;2023-04-29T11:30:03;101948.63;;;15.15;100.00
18436;BME280;9346;52.006;4.720;2023-04-29T11:32:33;101948.91;;;15.18;100.00
18436;BME280;9346;52.006;4.720;2023-04-29T11:35:09;101947.53;;;15.26;100.00
18436;BME280;9346;52.006;4.720;2023-04-29T11:37:40;101944.19;;;15.24;100.00
18436;BME280;9346;52.006;4.720;2023-04-29T11:40:14;101947.25;;;15.27;100.00
18436;BME280;9346;52.006;4.720;2023-04-29T11:42:44;101956.97;;;15.30;100.00
18436;BME280;9346;52.006;4.720;2023-04-29T11:45:18;101950.84;;;15.23;100.00
18436;BME280;9346;52.006;4.720;2023-04-29T11:47:47;101951.97;;;15.37;100.00
18436;BME280;9346;52.006;4.720;2023-04-29T11:50:17;101957.81;;;15.40;100.00
18436;BME280;9346;52.006;4.720;2023-04-29T11:52:46;101956.41;;;15.43;100.00
18436;BME280;9346;52.006;4.720;2023-04-29T11:55:14;101954.22;;;15.45;100.00
18436;BME280;9346;52.006;4.720;2023-04-29T11:57:41;101954.75;;;15.47;100.00
18436;BME280;9346;52.006;4.720;2023-04-29T12:00:09;101953.94;;;15.46;100.00
18436;BME280;9346;52.006;4.720;2023-04-29T12:02:42;101952.25;;;15.45;100.00
18436;BME280;9346;52.006;4.720;2023-04-29T12:05:09;101953.63;;;15.58;100.00
18436;BME280;9346;52.006;4.720;2023-04-29T12:07:38;101965.84;;;15.67;100.00
18436;BME280;9346;52.006;4.720;2023-04-29T12:10:07;101965.56;;;15.69;100.00
18436;BME280;9346;52.006;4.720;2023-04-29T12:12:35;101961.34;;;15.76;100.00
18436;BME280;9346;52.006;4.720;2023-04-29T12:15:06;101947.22;;;15.73;100.00
18436;BME280;9346;52.006;4.720;2023-04-29T12:17:34;101958.59;;;15.71;100.00
18436;BME280;9346;52.006;4.720;2023-04-29T12:20:03;101955.81;;;15.71;100.00
18436;BME280;9346;52.006;4.720;2023-04-29T12:22:31;101962.22;;;15.61;100.00
18436;BME280;9346;52.006;4.720;2023-04-29T12:24:58;101960.84;;;15.59;100.00
18436;BME280;9346;52.006;4.720;2023-04-29T12:27:25;101962.50;;;15.60;100.00
18436;BME280;9346;52.006;4.720;2023-04-29T12:29:52;101965.00;;;15.61;100.00
18436;BME280;9346;52.006;4.720;2023-04-29T12:32:21;101965.28;;;15.55;100.00
18436;BME280;9346;52.006;4.720;2023-04-29T12:34:49;101962.78;;;15.48;100.00
18436;BME280;9346;52.006;4.720;2023-04-29T12:37:21;101969.19;;;15.54;100.00
18436;BME280;9346;52.006;4.720;2023-04-29T12:39:49;101966.69;;;15.63;100.00
18436;BME280;9346;52.006;4.720;2023-04-29T12:42:18;101969.44;;;15.68;100.00
18436;BME280;9346;52.006;4.720;2023-04-29T12:44:46;101970.25;;;15.68;100.00
18436;BME280;9346;52.006;4.720;2023-04-29T12:47:13;101965.81;;;15.72;100.00
18436;BME280;9346;52.006;4.720;2023-04-29T12:49:40;101971.66;;;15.76;100.00
18436;BME280;9346;52.006;4.720;2023-04-29T12:52:07;101974.97;;;15.78;100.00
18436;BME280;9346;52.006;4.720;2023-04-29T12:54:36;101969.41;;;15.78;100.00
18436;BME280;9346;52.006;4.720;2023-04-29T12:57:06;101967.75;;;15.82;100.00
18436;BME280;9346;52.006;4.720;2023-04-29T12:59:33;101978.28;;;15.80;100.00